Time;durP1;ratioP1;P1;durP2;ratioP2;P2;SDS_P1;SDS_P2;PMS_P1;PMS_P2;Temp;Humidity;BMP_temperature;BMP_pressure;BME280_temperature;BME280_humidity;BME280_pressure;Samples;Min_cycle;Max_cycle;Signal;HPM_P1;HPM_P2
2022/08/30 00:03:19;;;;;;;21.42;13.38;;;;;;;17.69;54.25;99895.66;5069956;28;20102;-70
2022/08/30 00:05:46;;;;;;;22.10;12.32;;;;;;;17.63;54.15;99902.34;5069292;28;20055;-70
2022/08/30 00:08:13;;;;;;;19.25;12.50;;;;;;;17.58;54.30;99899.16;5069391;28;20055;-70
2022/08/30 00:10:41;;;;;;;12.55;6.00;;;;;;;17.57;54.39;99897.44;5069660;28;20516;-70
2022/08/30 00:13:10;;;;;;;9.77;4.63;;;;;;;17.56;54.29;99901.94;5069576;28;20055;-70
2022/08/30 00:15:37;;;;;;;10.20;3.97;;;;;;;17.51;54.17;99903.25;5069769;28;20569;-71
2022/08/30 00:18:04;;;;;;;9.75;4.05;;;;;;;17.42;55.08;99902.13;5068917;28;20072;-72
2022/08/30 00:20:34;;;;;;;12.55;5.68;;;;;;;17.30;55.98;99903.94;5069471;28;20048;-68
2022/08/30 00:23:01;;;;;;;9.32;4.63;;;;;;;17.19;56.36;99897.72;5069339;28;20424;-68
2022/08/30 00:25:28;;;;;;;10.18;5.53;;;;;;;17.10;56.12;99889.41;5069568;28;20048;-71
2022/08/30 00:27:55;;;;;;;12.77;3.60;;;;;;;17.11;55.92;99896.47;5068499;28;20087;-69
2022/08/30 00:30:22;;;;;;;15.82;4.93;;;;;;;17.11;55.81;99893.81;5082273;28;20134;-70
2022/08/30 00:32:49;;;;;;;8.57;4.35;;;;;;;17.05;56.17;99902.22;5089438;28;20044;-68
2022/08/30 00:35:19;;;;;;;8.48;4.13;;;;;;;16.99;56.20;99896.53;5089682;28;20046;-70
2022/08/30 00:37:47;;;;;;;5.85;3.72;;;;;;;16.94;57.14;99900.38;5076756;28;20058;-71
2022/08/30 00:40:15;;;;;;;6.78;3.38;;;;;;;16.86;56.70;99902.75;5068946;28;20048;-70
2022/08/30 00:42:43;;;;;;;9.60;4.40;;;;;;;16.78;57.04;99914.91;5069486;28;20059;-71
2022/08/30 00:45:13;;;;;;;9.63;4.60;;;;;;;16.70;57.52;99912.78;5069359;28;20460;-71
2022/08/30 00:47:40;;;;;;;6.80;4.03;;;;;;;16.67;57.63;99902.38;5068527;28;20059;-70
2022/08/30 00:50:08;;;;;;;7.70;3.92;;;;;;;16.57;57.84;99904.84;5068880;28;20044;-69
2022/08/30 00:52:38;;;;;;;8.25;4.45;;;;;;;16.46;58.19;99902.94;5071731;28;20066;-70
2022/08/30 00:55:07;;;;;;;13.98;4.90;;;;;;;16.36;57.91;99907.22;5068974;28;20048;-70
2022/08/30 00:57:34;;;;;;;6.38;3.40;;;;;;;16.27;58.94;99908.75;5068577;28;20063;-70
2022/08/30 01:00:02;;;;;;;7.57;4.13;;;;;;;16.20;59.22;99914.63;5070950;28;20048;-70
2022/08/30 01:02:32;;;;;;;7.97;3.97;;;;;;;16.13;59.18;99908.03;5069014;28;20051;-70
2022/08/30 01:05:01;;;;;;;11.38;5.15;;;;;;;16.07;59.04;99904.84;5069082;28;20106;-71
2022/08/30 01:07:27;;;;;;;7.85;3.88;;;;;;;16.06;59.15;99908.44;5068558;28;20044;-69
2022/08/30 01:09:54;;;;;;;13.55;4.53;;;;;;;16.08;59.12;99908.34;5068878;28;20049;-69
2022/08/30 01:12:23;;;;;;;7.03;4.10;;;;;;;16.06;59.38;99907.59;5068876;28;20071;-69
2022/08/30 01:14:49;;;;;;;9.93;4.82;;;;;;;15.98;59.83;99905.47;5068876;28;20059;-70
2022/08/30 01:17:17;;;;;;;7.00;3.47;;;;;;;15.96;59.69;99906.53;5068455;28;20063;-68
2022/08/30 01:19:49;;;;;;;12.00;4.10;;;;;;;15.95;59.92;99907.47;5069123;28;20517;-69
2022/08/30 01:22:24;;;;;;;10.63;5.05;;;;;;;15.89;59.98;99908.78;5068951;28;20457;-70
2022/08/30 01:24:55;;;;;;;7.82;4.68;;;;;;;15.85;59.99;99909.94;5074353;28;20046;-68
2022/08/30 01:27:24;;;;;;;8.82;4.05;;;;;;;15.76;60.75;99910.59;5088460;28;20713;-70
2022/08/30 01:29:51;;;;;;;7.43;4.15;;;;;;;15.70;60.64;99911.00;5088955;28;20048;-69
2022/08/30 01:32:19;;;;;;;9.15;4.07;;;;;;;15.74;60.25;99915.16;5088812;28;20048;-70
2022/08/30 01:34:47;;;;;;;11.27;4.50;;;;;;;15.72;60.76;99915.25;5088673;28;20047;-70
2022/08/30 01:37:16;;;;;;;14.55;6.45;;;;;;;15.70;60.42;99903.00;5080015;28;20051;-68
2022/08/30 01:39:45;;;;;;;9.65;5.43;;;;;;;15.64;60.84;99914.91;5089068;28;20052;-71
2022/08/30 01:42:14;;;;;;;14.80;4.38;;;;;;;15.61;60.91;99907.13;5088614;28;20070;-69
2022/08/30 01:44:40;;;;;;;9.38;4.15;;;;;;;15.64;61.00;99906.91;5088973;28;20047;-69
2022/08/30 01:47:07;;;;;;;9.52;4.85;;;;;;;15.64;60.64;99904.25;5088032;28;20052;-68
2022/08/30 01:49:33;;;;;;;7.80;4.60;;;;;;;15.58;61.04;99908.19;5088945;28;20048;-69
2022/08/30 01:52:00;;;;;;;7.88;3.80;;;;;;;15.51;61.33;99914.88;5092645;28;20048;-69
2022/08/30 01:54:26;;;;;;;10.55;5.45;;;;;;;15.49;61.30;99911.47;5089391;28;20040;-71
2022/08/30 01:56:53;;;;;;;5.93;3.80;;;;;;;15.45;61.21;99918.78;5071730;28;20048;-68
2022/08/30 01:59:21;;;;;;;5.88;3.75;;;;;;;15.39;61.53;99918.38;5072528;28;20060;-69
2022/08/30 02:01:48;;;;;;;9.85;4.05;;;;;;;15.37;61.89;99912.31;5072444;28;20040;-71
2022/08/30 02:04:15;;;;;;;12.60;5.30;;;;;;;15.31;61.85;99907.38;5072931;28;20051;-69
2022/08/30 02:06:43;;;;;;;15.02;5.22;;;;;;;15.20;62.29;99902.78;5072967;28;20052;-70
2022/08/30 02:09:10;;;;;;;10.55;4.65;;;;;;;15.12;62.62;99905.13;5072893;28;20052;-68
2022/08/30 02:11:37;;;;;;;9.13;4.35;;;;;;;15.07;62.73;99904.56;5072577;28;20652;-70
2022/08/30 02:14:04;;;;;;;10.25;4.47;;;;;;;15.08;62.78;99909.75;5071759;28;20114;-71
2022/08/30 02:16:32;;;;;;;14.93;4.70;;;;;;;15.09;62.60;99905.31;5071389;28;20044;-69
2022/08/30 02:18:59;;;;;;;9.18;4.45;;;;;;;15.08;62.50;99904.47;5071926;28;20058;-68
2022/08/30 02:21:26;;;;;;;8.10;4.68;;;;;;;15.06;62.67;99901.03;5079968;28;20488;-71
2022/08/30 02:23:53;;;;;;;7.97;4.93;;;;;;;15.03;62.69;99895.94;5091825;28;20450;-70
2022/08/30 02:26:20;;;;;;;8.07;4.28;;;;;;;15.05;62.59;99893.19;5091293;28;20044;-69
2022/08/30 02:28:47;;;;;;;8.45;4.55;;;;;;;15.02;62.80;99895.09;5091897;28;20051;-69
2022/08/30 02:31:14;;;;;;;10.65;4.35;;;;;;;14.98;62.93;99898.91;5092035;28;20063;-69
2022/08/30 02:33:42;;;;;;;10.27;5.18;;;;;;;14.87;63.29;99888.16;5075178;28;20044;-70
2022/08/30 02:36:09;;;;;;;12.68;4.60;;;;;;;14.85;63.57;99892.69;5070960;28;20575;-71
2022/08/30 02:38:36;;;;;;;9.10;4.60;;;;;;;14.81;63.55;99884.06;5090165;28;20134;-73
2022/08/30 02:41:03;;;;;;;11.65;4.60;;;;;;;14.83;63.40;99891.94;5091750;28;20070;-71
2022/08/30 02:43:29;;;;;;;8.35;4.40;;;;;;;14.84;63.29;99882.16;5091594;28;20050;-73
2022/08/30 02:45:56;;;;;;;8.65;4.55;;;;;;;14.85;63.44;99883.91;5090925;28;20058;-69
2022/08/30 02:48:22;;;;;;;9.93;4.15;;;;;;;14.81;63.36;99877.91;5091169;28;20055;-70
2022/08/30 02:50:52;;;;;;;9.40;4.47;;;;;;;14.76;63.47;99880.88;5087988;28;20052;-69
2022/08/30 02:53:20;;;;;;;13.27;6.13;;;;;;;14.74;63.75;99869.53;5087396;28;20066;-70
2022/08/30 02:55:47;;;;;;;7.18;4.45;;;;;;;14.62;64.14;99870.31;5076424;28;20052;-70
2022/08/30 02:58:14;;;;;;;10.05;5.13;;;;;;;14.54;64.64;99872.59;5070833;28;20131;-69
2022/08/30 03:00:41;;;;;;;6.78;3.63;;;;;;;14.49;64.83;99875.50;5070709;28;20143;-70
2022/08/30 03:03:08;;;;;;;7.35;4.30;;;;;;;14.45;64.67;99874.03;5071023;28;20107;-70
2022/08/30 03:05:35;;;;;;;9.30;5.05;;;;;;;14.46;64.59;99874.88;5070904;28;20053;-70
2022/08/30 03:08:03;;;;;;;10.05;4.72;;;;;;;14.52;64.58;99879.75;5070196;28;20139;-70
2022/08/30 03:10:30;;;;;;;12.13;4.82;;;;;;;14.53;64.54;99878.84;5070883;28;20054;-70
2022/08/30 03:12:57;;;;;;;16.17;5.25;;;;;;;14.50;64.36;99871.94;5070900;28;20048;-69
2022/08/30 03:15:24;;;;;;;11.77;4.75;;;;;;;14.43;65.04;99878.56;5070916;28;20056;-69
2022/08/30 03:17:51;;;;;;;8.48;4.78;;;;;;;14.39;65.43;99877.91;5079632;28;20451;-69
2022/08/30 03:20:18;;;;;;;10.95;4.78;;;;;;;14.43;65.09;99875.91;5090686;28;20048;-70
2022/08/30 03:22:45;;;;;;;14.02;4.97;;;;;;;14.46;64.54;99875.72;5090813;28;20050;-70
2022/08/30 03:25:14;;;;;;;8.45;4.30;;;;;;;14.47;64.75;99873.91;5090872;28;20048;-70
2022/08/30 03:27:41;;;;;;;9.88;5.07;;;;;;;14.39;65.21;99869.94;5089941;28;20044;-69
2022/08/30 03:30:09;;;;;;;6.90;4.15;;;;;;;14.36;65.51;99871.94;5071858;28;20048;-68
2022/08/30 03:32:35;;;;;;;14.85;4.60;;;;;;;14.30;65.63;99873.19;5070508;28;20040;-69
2022/08/30 03:35:02;;;;;;;11.00;4.35;;;;;;;14.27;65.81;99865.41;5070462;28;20411;-68
2022/08/30 03:37:29;;;;;;;9.20;5.05;;;;;;;14.29;65.88;99863.53;5078851;28;20055;-70
2022/08/30 03:39:56;;;;;;;10.02;4.38;;;;;;;14.37;65.63;99860.38;5090077;28;20055;-70
2022/08/30 03:42:24;;;;;;;15.38;4.80;;;;;;;14.41;65.43;99869.00;5090473;28;21135;-69
2022/08/30 03:44:50;;;;;;;7.05;4.22;;;;;;;14.41;65.23;99866.34;5090487;28;20101;-69
2022/08/30 03:47:17;;;;;;;12.00;4.28;;;;;;;14.42;65.33;99862.75;5089404;28;20059;-69
2022/08/30 03:49:43;;;;;;;9.73;4.65;;;;;;;14.41;65.48;99877.81;5090137;28;20407;-69
2022/08/30 03:52:10;;;;;;;8.93;4.53;;;;;;;14.34;65.68;99874.69;5090192;28;20044;-69
2022/08/30 03:54:37;;;;;;;7.80;3.97;;;;;;;14.33;65.76;99873.00;5085493;28;20419;-69
2022/08/30 03:57:04;;;;;;;15.05;4.70;;;;;;;14.32;66.03;99876.59;5069259;28;20148;-69
2022/08/30 03:59:32;;;;;;;10.43;4.22;;;;;;;14.32;65.92;99871.31;5069768;28;20518;-69
2022/08/30 04:01:59;;;;;;;13.38;5.65;;;;;;;14.26;66.36;99873.47;5069753;28;20147;-69
2022/08/30 04:04:26;;;;;;;5.75;4.07;;;;;;;14.26;66.48;99871.69;5069841;28;20526;-69
2022/08/30 04:06:52;;;;;;;6.88;4.38;;;;;;;14.24;66.48;99870.91;5069428;28;20056;-69
2022/08/30 04:09:19;;;;;;;9.77;4.28;;;;;;;14.22;66.38;99875.47;5069770;28;20048;-70
2022/08/30 04:11:46;;;;;;;6.80;3.85;;;;;;;14.23;66.80;99871.88;5069877;28;20050;-69
2022/08/30 04:14:12;;;;;;;9.13;4.18;;;;;;;14.22;66.69;99877.25;5079434;28;20044;-69
2022/08/30 04:16:40;;;;;;;9.10;3.88;;;;;;;14.25;66.91;99872.63;5089195;28;20047;-68
2022/08/30 04:19:07;;;;;;;11.95;5.32;;;;;;;14.33;66.28;99875.66;5089794;28;20415;-68
2022/08/30 04:21:34;;;;;;;11.32;4.70;;;;;;;14.34;66.34;99874.69;5089938;28;20079;-68
2022/08/30 04:24:00;;;;;;;11.00;4.20;;;;;;;14.31;66.67;99880.19;5089571;28;20044;-69
2022/08/30 04:26:27;;;;;;;9.30;4.68;;;;;;;14.33;66.54;99877.47;5069855;28;20415;-69
2022/08/30 04:28:54;;;;;;;10.10;3.88;;;;;;;14.37;66.47;99877.16;5069288;28;20060;-68
2022/08/30 04:31:21;;;;;;;7.13;4.45;;;;;;;14.37;66.43;99878.94;5069541;28;20059;-69
2022/08/30 04:33:49;;;;;;;10.20;4.80;;;;;;;14.38;66.45;99876.22;5069641;28;20063;-69
2022/08/30 04:36:15;;;;;;;6.75;4.32;;;;;;;14.39;66.19;99885.84;5068521;28;20055;-69
2022/08/30 04:38:42;;;;;;;11.80;5.90;;;;;;;14.43;66.54;99885.69;5088601;28;20048;-69
2022/08/30 04:41:11;;;;;;;10.88;4.80;;;;;;;14.37;66.63;99885.13;5089346;28;20044;-69
2022/08/30 04:43:37;;;;;;;7.22;4.63;;;;;;;14.38;66.59;99884.16;5089402;28;20056;-69
2022/08/30 04:46:06;;;;;;;7.75;5.38;;;;;;;14.38;67.04;99885.97;5085360;28;20055;-69
2022/08/30 04:48:32;;;;;;;11.35;6.28;;;;;;;14.35;67.03;99884.38;5089010;28;20048;-71
2022/08/30 04:51:04;;;;;;;9.80;4.40;;;;;;;14.35;67.15;99889.66;5089045;28;20059;-70
2022/08/30 04:53:31;;;;;;;11.00;4.95;;;;;;;14.41;67.20;99890.22;5089364;28;20040;-70
2022/08/30 04:55:57;;;;;;;11.45;5.57;;;;;;;14.46;67.04;99896.09;5072174;28;20045;-70
2022/08/30 04:58:24;;;;;;;10.25;5.85;;;;;;;14.47;66.87;99889.81;5069308;28;20514;-69
2022/08/30 05:00:51;;;;;;;7.28;5.40;;;;;;;14.48;67.14;99903.00;5069847;28;20519;-70
2022/08/30 05:03:17;;;;;;;9.88;3.97;;;;;;;14.50;67.02;99897.59;5086817;28;20055;-70
2022/08/30 05:05:47;;;;;;;12.57;6.40;;;;;;;14.53;67.03;99897.41;5089474;28;20048;-72
2022/08/30 05:08:17;;;;;;;7.15;4.22;;;;;;;14.64;66.79;99897.59;5089634;28;20052;-70
2022/08/30 05:10:46;;;;;;;8.15;5.03;;;;;;;14.68;66.51;99906.22;5089934;28;20044;-70
2022/08/30 05:13:12;;;;;;;10.63;4.68;;;;;;;14.67;66.84;99904.50;5089876;28;20044;-70
2022/08/30 05:15:39;;;;;;;9.98;5.25;;;;;;;14.65;66.79;99907.25;5090182;28;20052;-70
2022/08/30 05:18:07;;;;;;;9.23;5.07;;;;;;;14.69;66.82;99913.22;5089064;28;20403;-69
2022/08/30 05:20:34;;;;;;;9.15;5.47;;;;;;;14.71;66.98;99911.31;5088318;28;20047;-69
2022/08/30 05:23:01;;;;;;;11.23;5.35;;;;;;;14.72;66.98;99907.72;5068866;28;20462;-69
2022/08/30 05:25:31;;;;;;;9.48;4.95;;;;;;;14.74;66.87;99908.47;5072679;28;20504;-70
2022/08/30 05:27:58;;;;;;;11.85;5.45;;;;;;;14.82;66.69;99912.34;5072698;28;20055;-70
2022/08/30 05:30:27;;;;;;;12.45;5.30;;;;;;;14.90;66.52;99913.66;5087647;28;20067;-70
2022/08/30 05:32:54;;;;;;;9.85;4.07;;;;;;;14.96;66.69;99915.88;5093493;28;20070;-69
2022/08/30 05:35:21;;;;;;;10.30;5.18;;;;;;;15.03;66.29;99912.72;5093019;28;20048;-70
2022/08/30 05:37:48;;;;;;;14.88;5.68;;;;;;;15.11;65.88;99914.03;5092284;28;20051;-69
2022/08/30 05:40:16;;;;;;;14.15;6.45;;;;;;;15.12;66.11;99908.63;5092091;28;20058;-69
2022/08/30 05:42:44;;;;;;;13.40;6.63;;;;;;;15.15;66.25;99904.91;5092737;28;20052;-69
2022/08/30 05:45:12;;;;;;;14.88;5.15;;;;;;;15.13;66.51;99907.66;5092771;28;20060;-68
2022/08/30 05:47:39;;;;;;;14.52;5.47;;;;;;;15.07;66.78;99908.06;5091710;28;20052;-69
2022/08/30 05:50:07;;;;;;;15.48;5.82;;;;;;;15.02;67.26;99908.38;5092194;28;20126;-72
2022/08/30 05:52:35;;;;;;;13.68;4.43;;;;;;;15.02;67.18;99908.38;5093420;28;20051;-71
2022/08/30 05:55:03;;;;;;;13.70;5.53;;;;;;;15.03;67.12;99907.41;5085323;28;20049;-69
2022/08/30 05:57:32;;;;;;;15.05;5.63;;;;;;;15.12;67.06;99902.47;5072324;28;20044;-69
2022/08/30 06:00:00;;;;;;;23.52;6.45;;;;;;;15.17;66.97;99914.47;5072872;28;20102;-70
2022/08/30 06:02:27;;;;;;;11.57;5.55;;;;;;;15.20;66.86;99916.91;5073936;28;20415;-70
2022/08/30 06:04:53;;;;;;;16.38;5.03;;;;;;;15.24;66.98;99918.44;5074663;28;20040;-71
2022/08/30 06:07:20;;;;;;;13.00;6.05;;;;;;;15.29;66.68;99907.50;5092157;28;20043;-68
2022/08/30 06:09:46;;;;;;;15.85;8.02;;;;;;;15.33;66.75;99910.78;5092066;28;20048;-68
2022/08/30 06:12:13;;;;;;;13.18;5.60;;;;;;;15.39;66.29;99907.75;5091923;28;20048;-70
2022/08/30 06:14:39;;;;;;;23.65;6.43;;;;;;;15.41;66.64;99919.13;5092038;28;20752;-70
2022/08/30 06:17:07;;;;;;;13.77;5.75;;;;;;;15.47;66.66;99916.03;5087412;28;20412;-69
2022/08/30 06:19:34;;;;;;;76.07;55.58;;;;;;;15.56;66.43;99914.56;5071508;28;20055;-71
2022/08/30 06:22:01;;;;;;;74.00;46.13;;;;;;;15.62;66.39;99915.00;5071363;28;20049;-68
2022/08/30 06:24:27;;;;;;;25.75;12.23;;;;;;;15.71;66.23;99916.22;5071602;28;20048;-70
2022/08/30 06:26:54;;;;;;;16.98;5.85;;;;;;;15.79;66.20;99908.56;5071188;28;20048;-70
2022/08/30 06:29:21;;;;;;;13.60;5.82;;;;;;;15.91;65.76;99911.34;5071726;28;20079;-70
2022/08/30 06:31:48;;;;;;;18.02;6.70;;;;;;;16.01;65.47;99907.91;5071703;28;20053;-69
2022/08/30 06:34:17;;;;;;;13.95;6.65;;;;;;;16.15;64.71;99906.97;5071523;28;20041;-70
2022/08/30 06:36:44;;;;;;;24.65;7.65;;;;;;;16.30;64.64;99907.69;5072819;28;20614;-71
2022/08/30 06:39:10;;;;;;;17.98;6.00;;;;;;;16.44;63.29;99904.91;5088006;28;20040;-71
2022/08/30 06:41:39;;;;;;;20.40;5.85;;;;;;;16.61;62.72;99913.44;5091640;28;20079;-70
2022/08/30 06:44:06;;;;;;;10.13;5.35;;;;;;;16.77;62.33;99916.72;5091280;28;20086;-69
2022/08/30 06:46:35;;;;;;;22.55;6.35;;;;;;;16.94;61.72;99919.03;5091101;28;20043;-70
2022/08/30 06:49:02;;;;;;;14.10;5.53;;;;;;;17.17;60.78;99917.31;5091824;28;20048;-70
2022/08/30 06:51:34;;;;;;;14.57;6.30;;;;;;;17.37;60.68;99915.81;5092108;28;20052;-71
2022/08/30 06:54:01;;;;;;;8.05;4.75;;;;;;;17.60;59.43;99914.06;5092417;28;20040;-69
2022/08/30 06:56:28;;;;;;;18.10;6.20;;;;;;;17.81;56.84;99914.25;5073000;28;20049;-70
2022/08/30 06:58:55;;;;;;;10.70;5.47;;;;;;;18.00;55.33;99907.50;5070871;28;20048;-68
2022/08/30 07:01:25;;;;;;;7.95;4.75;;;;;;;18.18;55.24;99905.22;5070852;28;20052;-69
2022/08/30 07:03:54;;;;;;;10.23;4.32;;;;;;;18.36;54.19;99905.56;5097179;28;20048;-70
2022/08/30 07:06:22;;;;;;;10.90;4.10;;;;;;;18.49;53.77;99910.78;5093175;28;20048;-69
2022/08/30 07:08:50;;;;;;;15.55;3.88;;;;;;;18.64;53.08;99906.88;5091531;28;20055;-70
2022/08/30 07:11:26;;;;;;;9.85;4.28;;;;;;;18.79;53.06;99911.00;5077889;28;20071;-70
2022/08/30 07:13:52;;;;;;;9.40;4.60;;;;;;;18.97;52.98;99916.66;5080511;28;20135;-67
2022/08/30 07:16:19;;;;;;;8.18;4.13;;;;;;;19.16;52.36;99909.78;5090258;28;20130;-69
2022/08/30 07:18:53;;;;;;;9.80;4.05;;;;;;;19.32;52.25;99915.56;5082228;28;20051;-70
2022/08/30 07:21:24;;;;;;;12.73;3.83;;;;;;;19.49;51.30;99909.66;5090628;28;20113;-66
2022/08/30 07:23:53;;;;;;;10.25;4.90;;;;;;;19.64;50.80;99906.63;5090233;28;20062;-68
2022/08/30 07:26:23;;;;;;;8.95;4.50;;;;;;;19.79;50.49;99913.41;5089811;28;20130;-68
2022/08/30 07:28:50;;;;;;;8.75;4.25;;;;;;;19.89;50.04;99916.97;5090907;28;20047;-68
2022/08/30 07:31:19;;;;;;;8.00;4.57;;;;;;;19.94;49.76;99922.78;5091817;28;20058;-69
2022/08/30 07:33:46;;;;;;;12.40;5.82;;;;;;;20.11;50.40;99923.16;5095887;28;20044;-69
2022/08/30 07:36:13;;;;;;;15.57;6.28;;;;;;;20.24;49.26;99918.41;5094314;28;20239;-67
2022/08/30 07:38:39;;;;;;;10.30;5.80;;;;;;;20.26;49.21;99921.81;5078155;28;20053;-49
2022/08/30 07:41:07;;;;;;;11.40;5.28;;;;;;;20.37;49.21;99908.31;5070868;28;20877;-48
2022/08/30 07:43:36;;;;;;;9.93;4.95;;;;;;;20.56;48.81;99906.72;5070523;28;20048;-52
2022/08/30 07:46:04;;;;;;;7.85;3.95;;;;;;;20.76;49.10;99913.81;5069727;28;20060;-56
2022/08/30 07:48:31;;;;;;;10.38;4.03;;;;;;;20.91;47.76;99916.09;5069777;28;20056;-53
2022/08/30 07:50:58;;;;;;;6.55;3.70;;;;;;;21.01;47.11;99920.47;5070721;28;20400;-50
2022/08/30 07:53:25;;;;;;;9.13;3.90;;;;;;;20.99;47.20;99918.94;5070359;28;20047;-53
2022/08/30 07:55:52;;;;;;;5.03;2.90;;;;;;;21.02;46.76;99918.66;5070602;28;20060;-55
2022/08/30 07:58:20;;;;;;;9.75;3.60;;;;;;;20.96;47.18;99924.56;5073905;28;20051;-50
2022/08/30 08:00:47;;;;;;;10.80;4.13;;;;;;;21.09;47.16;99918.94;5090610;28;20055;-53
2022/08/30 08:03:14;;;;;;;5.82;2.78;;;;;;;21.16;47.23;99920.06;5069865;28;20045;-55
2022/08/30 08:05:42;;;;;;;6.45;3.38;;;;;;;21.15;47.18;99923.75;5070222;28;20056;-50
2022/08/30 08:08:09;;;;;;;13.48;3.55;;;;;;;21.07;46.80;99924.47;5069877;28;20134;-55
2022/08/30 08:10:36;;;;;;;9.10;4.05;;;;;;;21.19;46.79;99926.03;5070132;28;20053;-55
2022/08/30 08:13:03;;;;;;;9.43;3.97;;;;;;;21.42;46.53;99923.94;5087182;28;20054;-50
2022/08/30 08:15:32;;;;;;;13.95;3.33;;;;;;;21.54;46.22;99919.25;5090204;28;20611;-52
2022/08/30 08:18:00;;;;;;;9.45;4.13;;;;;;;21.58;46.67;99922.50;5089579;28;20251;-50
2022/08/30 08:20:26;;;;;;;18.48;3.90;;;;;;;21.75;46.29;99918.25;5089664;28;20056;-53
2022/08/30 08:22:53;;;;;;;8.35;4.15;;;;;;;21.83;45.79;99929.09;5090336;28;20336;-50
2022/08/30 08:25:20;;;;;;;16.63;4.63;;;;;;;21.81;45.76;99925.72;5090270;28;20047;-51
2022/08/30 08:27:47;;;;;;;9.50;4.25;;;;;;;21.78;45.87;99932.22;5089683;28;20046;-73
2022/08/30 08:30:14;;;;;;;11.20;4.35;;;;;;;21.76;46.23;99928.00;5091865;28;20138;-72
2022/08/30 08:32:42;;;;;;;7.93;4.85;;;;;;;21.80;45.62;99929.38;5091551;28;20058;-71
2022/08/30 08:35:10;;;;;;;9.07;4.95;;;;;;;21.95;45.65;99921.72;5090572;28;20040;-69
2022/08/30 08:37:36;;;;;;;9.45;4.25;;;;;;;21.93;45.64;99926.38;5079205;28;20053;-71
2022/08/30 08:40:04;;;;;;;8.70;4.53;;;;;;;21.97;45.54;99922.44;5070642;28;20049;-69
2022/08/30 08:42:43;;;;;;;11.27;4.78;;;;;;;22.11;45.71;99918.44;5075446;28;20098;-70
2022/08/30 08:45:14;;;;;;;14.82;4.63;;;;;;;22.22;45.27;99921.81;5085462;28;20047;-70
2022/08/30 08:47:54;;;;;;;13.35;4.82;;;;;;;22.31;45.02;99922.78;5076718;28;20044;-68
2022/08/30 08:50:21;;;;;;;13.43;4.90;;;;;;;22.34;44.98;99914.41;5069190;28;20056;-69
2022/08/30 08:55:38;;;;;;;6.93;3.45;;;;;;;22.33;44.73;99912.72;5062970;28;20043;-70
2022/08/30 08:58:04;;;;;;;6.43;3.83;;;;;;;22.51;45.10;99919.00;5088394;28;20144;-70
2022/08/30 09:00:32;;;;;;;12.68;4.45;;;;;;;22.66;44.32;99915.81;5088698;28;20138;-69
2022/08/30 09:03:03;;;;;;;9.40;3.97;;;;;;;22.74;43.65;99915.88;5089138;28;20054;-70
2022/08/30 09:05:35;;;;;;;12.55;4.32;;;;;;;22.83;43.89;99914.16;5088253;28;20178;-72
2022/08/30 09:08:04;;;;;;;14.50;4.53;;;;;;;22.94;43.40;99920.16;5068128;28;20519;-68
2022/08/30 09:10:32;;;;;;;7.90;3.60;;;;;;;22.97;43.46;99912.81;5068756;28;20056;-69
2022/08/30 09:13:00;;;;;;;9.80;3.40;;;;;;;23.11;43.63;99918.53;5068788;28;20052;-68
2022/08/30 09:15:29;;;;;;;26.55;4.35;;;;;;;23.22;43.00;99912.06;5068789;28;20040;-69
2022/08/30 09:17:58;;;;;;;12.27;4.50;;;;;;;23.30;42.73;99917.50;5068126;28;20044;-71
2022/08/30 09:20:32;;;;;;;7.78;3.67;;;;;;;23.49;42.14;99916.50;5068464;28;20045;-69
2022/08/30 09:23:11;;;;;;;6.60;3.58;;;;;;;23.93;41.20;99921.06;5073481;28;20044;-71
2022/08/30 09:25:38;;;;;;;15.25;4.57;;;;;;;24.66;39.52;99908.97;5089211;28;20051;-70
2022/08/30 09:28:11;;;;;;;12.48;4.43;;;;;;;25.44;37.96;99922.13;5088688;28;20059;-71
2022/08/30 09:30:38;;;;;;;12.15;3.72;;;;;;;26.23;36.47;99912.41;5089089;28;20048;-71
2022/08/30 09:33:15;;;;;;;10.50;3.90;;;;;;;26.85;35.40;99918.94;5088698;28;20047;-70
2022/08/30 09:35:45;;;;;;;8.23;3.72;;;;;;;27.29;34.24;99919.19;5090002;28;20059;-70
2022/08/30 09:38:17;;;;;;;10.30;4.57;;;;;;;27.97;33.62;99920.16;5088827;28;20040;-70
2022/08/30 09:40:47;;;;;;;7.20;4.03;;;;;;;28.47;32.63;99915.88;5089111;28;20070;-70
2022/08/30 09:43:22;;;;;;;7.55;3.50;;;;;;;28.80;32.45;99910.03;5088809;28;20054;-69
2022/08/30 09:46:04;;;;;;;8.95;3.70;;;;;;;29.03;31.19;99914.47;5088463;28;20055;-69
2022/08/30 09:48:33;;;;;;;12.27;4.03;;;;;;;28.30;32.21;99913.53;5088376;28;20048;-69
2022/08/30 09:51:32;;;;;;;9.35;3.28;;;;;;;28.28;32.62;99905.59;5085755;28;20500;-71
2022/08/30 09:54:08;;;;;;;11.60;3.92;;;;;;;27.96;33.03;99909.47;5074842;28;20056;-71
2022/08/30 09:56:42;;;;;;;10.50;3.50;;;;;;;28.25;32.36;99914.09;5068085;28;20561;-73
2022/08/30 09:59:22;;;;;;;5.45;3.53;;;;;;;28.64;31.26;99902.09;5068219;28;20044;-72
2022/08/30 10:01:52;;;;;;;8.63;3.83;;;;;;;28.96;31.32;99892.66;5068403;28;20059;-69
2022/08/30 10:04:27;;;;;;;22.88;4.57;;;;;;;29.06;30.61;99901.34;5076514;28;20053;-69
2022/08/30 10:07:03;;;;;;;9.45;3.88;;;;;;;29.60;30.22;99899.13;5068089;28;20040;-69
2022/08/30 10:09:39;;;;;;;8.55;3.40;;;;;;;29.68;30.21;99905.31;5068351;28;20048;-69
2022/08/30 10:12:13;;;;;;;14.27;3.97;;;;;;;29.91;29.52;99891.47;5071254;28;20048;-71
2022/08/30 10:14:48;;;;;;;;;;;;;;;30.25;28.85;99889.81;5072437;28;20507;-70
2022/08/30 10:17:25;;;;;;;9.60;3.30;;;;;;;31.00;27.69;99888.03;5071346;28;19927;-68
2022/08/30 10:20:01;;;;;;;8.13;3.83;;;;;;;30.62;27.73;99890.41;5071802;28;20071;-67
2022/08/30 10:22:33;;;;;;;11.80;3.80;;;;;;;30.63;27.70;99892.06;5071779;28;20151;-70
2022/08/30 10:25:06;;;;;;;15.80;4.35;;;;;;;30.50;28.13;99883.88;5071495;28;20512;-73
2022/08/30 10:27:38;;;;;;;8.30;4.38;;;;;;;30.82;28.01;99882.31;5071329;28;20052;-69
2022/08/30 10:30:09;;;;;;;5.60;3.45;;;;;;;31.13;27.48;99872.75;5071376;28;20059;-69
2022/08/30 10:32:41;;;;;;;10.32;3.83;;;;;;;30.57;27.36;99877.41;5071977;28;20041;-69
2022/08/30 10:35:11;;;;;;;8.45;3.85;;;;;;;30.11;27.73;99888.03;5071239;28;20048;-69
2022/08/30 10:37:44;;;;;;;7.20;4.53;;;;;;;30.04;28.13;99885.28;5070883;28;20056;-68
2022/08/30 10:43:08;;;;;;;15.57;3.83;;;;;;;28.66;29.52;99883.78;5071709;28;20178;-70
2022/08/30 10:45:40;;;;;;;6.95;4.00;;;;;;;27.99;30.31;99880.16;5071461;28;20141;-70
2022/08/30 10:48:16;;;;;;;14.15;4.80;;;;;;;28.21;30.25;99881.09;5082231;28;20299;-70
2022/08/30 10:50:46;;;;;;;18.75;10.02;;;;;;;28.27;30.03;99869.47;5091282;28;20050;-70
2022/08/30 10:53:20;;;;;;;10.68;3.97;;;;;;;27.96;30.41;99876.97;5089866;28;20044;-71
2022/08/30 10:55:51;;;;;;;6.30;4.10;;;;;;;27.71;30.69;99871.78;5077392;28;20121;-70
2022/08/30 10:58:18;;;;;;;7.63;4.45;;;;;;;27.60;31.85;99869.53;5078355;28;20075;-56
2022/08/30 11:00:59;;;;;;;4.90;3.35;;;;;;;27.54;31.26;99871.13;5071168;28;20079;-57
2022/08/30 11:04:03;;;;;;;10.95;3.45;;;;;;;27.61;31.38;99868.50;5070542;28;20049;-55
2022/08/30 11:06:40;;;;;;;14.90;4.85;;;;;;;27.68;30.78;99864.03;5070485;28;20048;-51
2022/08/30 11:09:20;;;;;;;14.95;4.30;;;;;;;27.52;30.95;99869.63;5071003;28;20059;-56
2022/08/30 11:12:02;;;;;;;12.35;4.43;;;;;;;27.38;31.08;99871.25;5071306;28;20055;-54
2022/08/30 11:14:30;;;;;;;11.90;4.28;;;;;;;27.37;31.44;99864.16;5071119;28;20456;-50
2022/08/30 11:17:00;;;;;;;12.77;4.72;;;;;;;27.33;31.85;99857.41;5070893;28;20052;-57
2022/08/30 11:19:35;;;;;;;22.95;8.07;;;;;;;27.09;32.51;99859.25;5086222;28;20067;-53
2022/08/30 11:22:13;;;;;;;24.80;10.27;;;;;;;27.16;33.09;99859.38;5090841;28;20044;-56
2022/08/30 11:25:03;;;;;;;19.33;7.72;;;;;;;27.11;32.63;99857.22;5091567;28;20040;-56
2022/08/30 11:27:45;;;;;;;9.77;4.85;;;;;;;27.16;33.77;99857.50;5090703;28;20491;-53
2022/08/30 11:30:51;;;;;;;11.82;4.78;;;;;;;27.19;32.86;99867.16;5090368;28;20058;-56
2022/08/30 11:33:31;;;;;;;10.18;4.00;;;;;;;27.03;33.72;99870.81;5071502;28;20264;-57
2022/08/30 11:35:58;;;;;;;17.00;5.03;;;;;;;26.94;33.86;99859.19;5071245;28;20080;-54
2022/08/30 11:38:59;;;;;;;7.65;4.18;;;;;;;27.07;33.26;99852.34;5088594;28;20052;-55
2022/08/30 11:41:36;;;;;;;9.88;4.22;;;;;;;26.94;33.23;99847.53;5091739;28;20520;-56
2022/08/30 11:44:30;;;;;;;13.95;4.60;;;;;;;27.06;32.82;99854.22;5091178;28;20056;-55
2022/08/30 11:46:57;;;;;;;9.80;3.50;;;;;;;27.26;32.87;99843.75;5083865;28;20522;-54